sensor_id;sensor_type;location;lat;lon;timestamp;P1;durP1;ratioP1;P2;durP2;ratioP2
55053;SDS011;40954;45.668;18.980;2022-12-13T00:01:50;34.97;;;23.02;;
55053;SDS011;40954;45.668;18.980;2022-12-13T00:04:17;34.28;;;21.38;;
55053;SDS011;40954;45.668;18.980;2022-12-13T00:06:44;33.90;;;20.75;;
55053;SDS011;40954;45.668;18.980;2022-12-13T00:09:14;32.55;;;20.88;;
55053;SDS011;40954;45.668;18.980;2022-12-13T00:11:40;34.90;;;22.13;;
55053;SDS011;40954;45.668;18.980;2022-12-13T00:14:06;40.53;;;23.58;;
55053;SDS011;40954;45.668;18.980;2022-12-13T00:16:32;34.72;;;21.83;;
55053;SDS011;40954;45.668;18.980;2022-12-13T00:18:58;34.50;;;21.45;;
55053;SDS011;40954;45.668;18.980;2022-12-13T00:21:27;35.97;;;22.85;;
55053;SDS011;40954;45.668;18.980;2022-12-13T00:23:54;33.30;;;21.25;;
55053;SDS011;40954;45.668;18.980;2022-12-13T00:26:21;32.67;;;20.95;;
55053;SDS011;40954;45.668;18.980;2022-12-13T00:28:47;32.63;;;20.13;;
55053;SDS011;40954;45.668;18.980;2022-12-13T00:31:15;32.47;;;20.52;;
55053;SDS011;40954;45.668;18.980;2022-12-13T00:33:42;33.28;;;19.63;;
55053;SDS011;40954;45.668;18.980;2022-12-13T00:36:08;39.65;;;22.98;;
55053;SDS011;40954;45.668;18.980;2022-12-13T00:38:34;38.70;;;21.45;;
55053;SDS011;40954;45.668;18.980;2022-12-13T00:41:10;38.35;;;23.50;;
55053;SDS011;40954;45.668;18.980;2022-12-13T00:43:36;37.42;;;22.38;;
55053;SDS011;40954;45.668;18.980;2022-12-13T00:46:03;53.53;;;27.63;;
55053;SDS011;40954;45.668;18.980;2022-12-13T00:48:29;51.95;;;29.48;;
55053;SDS011;40954;45.668;18.980;2022-12-13T00:50:55;46.72;;;26.65;;
55053;SDS011;40954;45.668;18.980;2022-12-13T00:53:21;41.72;;;23.77;;
55053;SDS011;40954;45.668;18.980;2022-12-13T00:55:47;39.08;;;23.75;;
55053;SDS011;40954;45.668;18.980;2022-12-13T00:58:13;33.83;;;21.63;;
55053;SDS011;40954;45.668;18.980;2022-12-13T01:00:39;82.53;;;38.92;;
55053;SDS011;40954;45.668;18.980;2022-12-13T01:03:05;90.55;;;44.70;;
55053;SDS011;40954;45.668;18.980;2022-12-13T01:05:45;36.88;;;22.90;;
55053;SDS011;40954;45.668;18.980;2022-12-13T01:08:11;44.97;;;25.60;;
55053;SDS011;40954;45.668;18.980;2022-12-13T01:10:41;33.67;;;21.75;;
55053;SDS011;40954;45.668;18.980;2022-12-13T01:13:07;32.45;;;20.73;;
55053;SDS011;40954;45.668;18.980;2022-12-13T01:15:33;37.45;;;22.88;;
55053;SDS011;40954;45.668;18.980;2022-12-13T01:17:59;82.10;;;41.55;;
55053;SDS011;40954;45.668;18.980;2022-12-13T01:20:25;82.25;;;43.80;;
55053;SDS011;40954;45.668;18.980;2022-12-13T01:22:51;69.95;;;37.08;;
55053;SDS011;40954;45.668;18.980;2022-12-13T01:25:17;59.83;;;32.53;;
55053;SDS011;40954;45.668;18.980;2022-12-13T01:27:43;43.53;;;25.45;;
55053;SDS011;40954;45.668;18.980;2022-12-13T01:30:09;41.08;;;25.17;;
55053;SDS011;40954;45.668;18.980;2022-12-13T01:32:36;40.90;;;25.52;;
55053;SDS011;40954;45.668;18.980;2022-12-13T01:35:02;41.13;;;24.55;;
55053;SDS011;40954;45.668;18.980;2022-12-13T01:37:28;39.95;;;24.38;;
55053;SDS011;40954;45.668;18.980;2022-12-13T01:39:54;41.75;;;24.63;;
55053;SDS011;40954;45.668;18.980;2022-12-13T01:42:20;40.45;;;24.13;;
55053;SDS011;40954;45.668;18.980;2022-12-13T01:47:23;35.38;;;21.00;;
55053;SDS011;40954;45.668;18.980;2022-12-13T01:49:49;33.70;;;21.08;;
55053;SDS011;40954;45.668;18.980;2022-12-13T01:52:17;37.25;;;21.75;;
55053;SDS011;40954;45.668;18.980;2022-12-13T01:54:45;37.72;;;22.92;;
55053;SDS011;40954;45.668;18.980;2022-12-13T01:57:11;38.45;;;22.55;;
55053;SDS011;40954;45.668;18.980;2022-12-13T01:59:38;35.28;;;21.98;;
55053;SDS011;40954;45.668;18.980;2022-12-13T02:02:06;32.63;;;20.23;;
55053;SDS011;40954;45.668;18.980;2022-12-13T02:07:16;32.38;;;19.33;;
55053;SDS011;40954;45.668;18.980;2022-12-13T02:09:43;32.70;;;19.55;;
55053;SDS011;40954;45.668;18.980;2022-12-13T02:12:10;32.55;;;20.05;;
55053;SDS011;40954;45.668;18.980;2022-12-13T02:14:37;34.50;;;19.90;;
55053;SDS011;40954;45.668;18.980;2022-12-13T02:19:58;30.55;;;19.48;;
55053;SDS011;40954;45.668;18.980;2022-12-13T02:38:01;27.17;;;18.73;;
55053;SDS011;40954;45.668;18.980;2022-12-13T02:40:30;30.67;;;19.20;;
55053;SDS011;40954;45.668;18.980;2022-12-13T02:43:04;28.92;;;18.95;;
55053;SDS011;40954;45.668;18.980;2022-12-13T02:45:39;30.33;;;20.20;;
55053;SDS011;40954;45.668;18.980;2022-12-13T02:48:09;31.83;;;18.65;;
55053;SDS011;40954;45.668;18.980;2022-12-13T02:50:35;30.65;;;18.55;;
55053;SDS011;40954;45.668;18.980;2022-12-13T02:53:03;33.45;;;20.30;;
55053;SDS011;40954;45.668;18.980;2022-12-13T02:55:29;32.33;;;19.58;;
55053;SDS011;40954;45.668;18.980;2022-12-13T02:57:59;32.15;;;18.92;;
55053;SDS011;40954;45.668;18.980;2022-12-13T03:00:30;30.88;;;19.38;;
55053;SDS011;40954;45.668;18.980;2022-12-13T03:11:04;31.88;;;20.33;;
55053;SDS011;40954;45.668;18.980;2022-12-13T03:13:39;31.83;;;19.60;;
55053;SDS011;40954;45.668;18.980;2022-12-13T03:18:51;31.05;;;19.15;;
55053;SDS011;40954;45.668;18.980;2022-12-13T03:21:18;28.88;;;18.73;;
55053;SDS011;40954;45.668;18.980;2022-12-13T03:23:44;33.50;;;20.83;;
55053;SDS011;40954;45.668;18.980;2022-12-13T03:26:12;30.27;;;19.33;;
55053;SDS011;40954;45.668;18.980;2022-12-13T03:28:40;34.00;;;20.75;;
55053;SDS011;40954;45.668;18.980;2022-12-13T03:31:06;33.40;;;20.90;;
55053;SDS011;40954;45.668;18.980;2022-12-13T03:33:33;33.30;;;20.58;;
55053;SDS011;40954;45.668;18.980;2022-12-13T03:35:59;36.95;;;21.70;;
55053;SDS011;40954;45.668;18.980;2022-12-13T03:38:25;32.85;;;20.52;;
55053;SDS011;40954;45.668;18.980;2022-12-13T03:40:53;36.08;;;22.75;;
55053;SDS011;40954;45.668;18.980;2022-12-13T03:43:20;37.70;;;22.83;;
55053;SDS011;40954;45.668;18.980;2022-12-13T03:45:46;33.00;;;22.35;;
55053;SDS011;40954;45.668;18.980;2022-12-13T03:48:12;36.90;;;22.70;;
55053;SDS011;40954;45.668;18.980;2022-12-13T03:50:39;37.40;;;21.63;;
55053;SDS011;40954;45.668;18.980;2022-12-13T03:53:05;36.53;;;21.92;;
55053;SDS011;40954;45.668;18.980;2022-12-13T03:55:31;37.50;;;22.55;;
55053;SDS011;40954;45.668;18.980;2022-12-13T03:57:57;35.33;;;22.20;;
55053;SDS011;40954;45.668;18.980;2022-12-13T04:00:23;39.72;;;23.42;;
55053;SDS011;40954;45.668;18.980;2022-12-13T04:02:49;35.15;;;21.08;;
55053;SDS011;40954;45.668;18.980;2022-12-13T04:05:15;39.30;;;22.48;;
55053;SDS011;40954;45.668;18.980;2022-12-13T04:07:42;33.33;;;21.50;;
55053;SDS011;40954;45.668;18.980;2022-12-13T04:10:08;35.97;;;22.38;;
55053;SDS011;40954;45.668;18.980;2022-12-13T04:12:34;36.30;;;22.20;;
55053;SDS011;40954;45.668;18.980;2022-12-13T04:15:19;35.92;;;21.38;;
55053;SDS011;40954;45.668;18.980;2022-12-13T04:17:45;34.53;;;22.13;;
55053;SDS011;40954;45.668;18.980;2022-12-13T04:20:11;28.70;;;19.88;;
55053;SDS011;40954;45.668;18.980;2022-12-13T04:22:37;32.42;;;20.17;;
55053;SDS011;40954;45.668;18.980;2022-12-13T04:25:03;31.85;;;20.23;;
55053;SDS011;40954;45.668;18.980;2022-12-13T04:27:29;29.73;;;19.50;;
55053;SDS011;40954;45.668;18.980;2022-12-13T04:29:56;31.63;;;20.55;;
55053;SDS011;40954;45.668;18.980;2022-12-13T04:32:22;33.92;;;20.45;;
55053;SDS011;40954;45.668;18.980;2022-12-13T04:34:48;33.83;;;21.23;;
55053;SDS011;40954;45.668;18.980;2022-12-13T04:37:14;34.13;;;20.85;;
55053;SDS011;40954;45.668;18.980;2022-12-13T04:39:40;36.90;;;20.33;;
55053;SDS011;40954;45.668;18.980;2022-12-13T04:42:06;40.00;;;22.30;;
55053;SDS011;40954;45.668;18.980;2022-12-13T04:44:32;35.55;;;22.10;;
55053;SDS011;40954;45.668;18.980;2022-12-13T04:46:58;37.20;;;22.17;;
55053;SDS011;40954;45.668;18.980;2022-12-13T04:49:26;40.28;;;23.95;;
55053;SDS011;40954;45.668;18.980;2022-12-13T04:51:52;37.60;;;24.23;;
55053;SDS011;40954;45.668;18.980;2022-12-13T04:54:19;34.20;;;22.67;;
55053;SDS011;40954;45.668;18.980;2022-12-13T04:56:45;38.90;;;24.95;;
55053;SDS011;40954;45.668;18.980;2022-12-13T04:59:11;36.58;;;24.42;;
55053;SDS011;40954;45.668;18.980;2022-12-13T05:01:37;39.22;;;25.10;;
55053;SDS011;40954;45.668;18.980;2022-12-13T05:04:03;40.13;;;25.25;;
55053;SDS011;40954;45.668;18.980;2022-12-13T05:06:29;42.63;;;26.95;;
55053;SDS011;40954;45.668;18.980;2022-12-13T05:08:55;48.30;;;28.35;;
55053;SDS011;40954;45.668;18.980;2022-12-13T05:11:21;49.70;;;29.50;;
55053;SDS011;40954;45.668;18.980;2022-12-13T05:13:47;44.60;;;27.48;;
55053;SDS011;40954;45.668;18.980;2022-12-13T05:16:13;48.45;;;29.52;;
55053;SDS011;40954;45.668;18.980;2022-12-13T05:18:40;44.13;;;26.35;;
55053;SDS011;40954;45.668;18.980;2022-12-13T05:21:07;50.80;;;30.48;;
55053;SDS011;40954;45.668;18.980;2022-12-13T05:23:33;41.72;;;27.67;;
55053;SDS011;40954;45.668;18.980;2022-12-13T05:25:59;67.50;;;41.08;;
55053;SDS011;40954;45.668;18.980;2022-12-13T05:28:26;57.17;;;34.90;;
55053;SDS011;40954;45.668;18.980;2022-12-13T05:30:53;50.00;;;30.70;;
55053;SDS011;40954;45.668;18.980;2022-12-13T05:33:20;56.72;;;32.50;;
55053;SDS011;40954;45.668;18.980;2022-12-13T05:35:46;66.88;;;36.40;;
55053;SDS011;40954;45.668;18.980;2022-12-13T05:38:12;78.05;;;43.33;;
55053;SDS011;40954;45.668;18.980;2022-12-13T05:40:38;73.32;;;39.00;;
55053;SDS011;40954;45.668;18.980;2022-12-13T05:43:05;73.70;;;40.08;;
55053;SDS011;40954;45.668;18.980;2022-12-13T05:45:31;53.38;;;33.28;;
55053;SDS011;40954;45.668;18.980;2022-12-13T05:47:58;65.03;;;37.17;;
55053;SDS011;40954;45.668;18.980;2022-12-13T05:50:24;75.10;;;41.40;;
55053;SDS011;40954;45.668;18.980;2022-12-13T05:52:50;70.50;;;41.33;;
55053;SDS011;40954;45.668;18.980;2022-12-13T05:55:16;71.78;;;42.10;;
55053;SDS011;40954;45.668;18.980;2022-12-13T05:57:42;73.00;;;39.15;;
55053;SDS011;40954;45.668;18.980;2022-12-13T06:00:09;65.75;;;37.47;;
55053;SDS011;40954;45.668;18.980;2022-12-13T06:02:36;58.40;;;36.90;;
55053;SDS011;40954;45.668;18.980;2022-12-13T06:05:02;63.30;;;35.13;;
55053;SDS011;40954;45.668;18.980;2022-12-13T06:07:29;60.92;;;38.10;;
55053;SDS011;40954;45.668;18.980;2022-12-13T06:09:55;59.30;;;35.38;;
55053;SDS011;40954;45.668;18.980;2022-12-13T06:12:21;60.63;;;34.78;;
55053;SDS011;40954;45.668;18.980;2022-12-13T06:14:47;67.72;;;38.58;;
55053;SDS011;40954;45.668;18.980;2022-12-13T06:17:13;62.55;;;36.58;;
55053;SDS011;40954;45.668;18.980;2022-12-13T06:19:39;59.72;;;38.33;;
55053;SDS011;40954;45.668;18.980;2022-12-13T06:22:05;68.80;;;40.83;;
55053;SDS011;40954;45.668;18.980;2022-12-13T06:24:31;72.72;;;42.28;;
55053;SDS011;40954;45.668;18.980;2022-12-13T06:26:58;68.75;;;41.35;;
55053;SDS011;40954;45.668;18.980;2022-12-13T06:29:24;76.30;;;43.05;;
55053;SDS011;40954;45.668;18.980;2022-12-13T06:31:57;89.55;;;51.25;;
55053;SDS011;40954;45.668;18.980;2022-12-13T06:34:23;93.50;;;59.03;;
55053;SDS011;40954;45.668;18.980;2022-12-13T06:36:49;118.53;;;78.50;;
55053;SDS011;40954;45.668;18.980;2022-12-13T06:39:16;105.90;;;66.45;;
55053;SDS011;40954;45.668;18.980;2022-12-13T06:41:42;102.18;;;60.90;;
55053;SDS011;40954;45.668;18.980;2022-12-13T06:44:08;103.57;;;61.72;;
55053;SDS011;40954;45.668;18.980;2022-12-13T06:46:34;92.30;;;53.70;;
55053;SDS011;40954;45.668;18.980;2022-12-13T06:49:00;93.28;;;55.92;;
55053;SDS011;40954;45.668;18.980;2022-12-13T06:51:26;98.30;;;59.33;;
55053;SDS011;40954;45.668;18.980;2022-12-13T06:53:53;90.90;;;57.67;;
55053;SDS011;40954;45.668;18.980;2022-12-13T06:56:19;96.03;;;57.92;;
55053;SDS011;40954;45.668;18.980;2022-12-13T06:58:45;103.43;;;60.95;;
55053;SDS011;40954;45.668;18.980;2022-12-13T07:01:12;102.28;;;59.42;;
55053;SDS011;40954;45.668;18.980;2022-12-13T07:03:39;112.80;;;66.82;;
55053;SDS011;40954;45.668;18.980;2022-12-13T07:06:06;125.97;;;73.07;;
55053;SDS011;40954;45.668;18.980;2022-12-13T07:08:33;134.73;;;76.68;;
55053;SDS011;40954;45.668;18.980;2022-12-13T07:11:00;153.35;;;89.38;;
55053;SDS011;40954;45.668;18.980;2022-12-13T07:13:26;263.10;;;137.90;;
55053;SDS011;40954;45.668;18.980;2022-12-13T07:15:52;262.92;;;140.25;;
55053;SDS011;40954;45.668;18.980;2022-12-13T07:18:18;237.77;;;131.45;;
55053;SDS011;40954;45.668;18.980;2022-12-13T07:20:44;235.00;;;130.40;;
55053;SDS011;40954;45.668;18.980;2022-12-13T07:23:11;256.83;;;136.85;;
55053;SDS011;40954;45.668;18.980;2022-12-13T07:25:37;235.32;;;128.35;;
55053;SDS011;40954;45.668;18.980;2022-12-13T07:28:04;188.55;;;112.43;;
55053;SDS011;40954;45.668;18.980;2022-12-13T07:30:37;209.10;;;121.47;;
55053;SDS011;40954;45.668;18.980;2022-12-13T07:33:04;224.18;;;125.28;;
55053;SDS011;40954;45.668;18.980;2022-12-13T07:35:31;186.55;;;109.80;;
55053;SDS011;40954;45.668;18.980;2022-12-13T07:37:57;178.55;;;103.70;;
55053;SDS011;40954;45.668;18.980;2022-12-13T07:40:23;178.70;;;103.65;;
55053;SDS011;40954;45.668;18.980;2022-12-13T07:42:50;140.10;;;88.47;;
55053;SDS011;40954;45.668;18.980;2022-12-13T07:45:17;160.00;;;91.70;;
55053;SDS011;40954;45.668;18.980;2022-12-13T07:47:43;146.68;;;87.53;;
55053;SDS011;40954;45.668;18.980;2022-12-13T07:50:09;153.82;;;89.70;;
55053;SDS011;40954;45.668;18.980;2022-12-13T07:52:35;151.38;;;86.75;;
55053;SDS011;40954;45.668;18.980;2022-12-13T07:55:01;146.15;;;87.70;;
55053;SDS011;40954;45.668;18.980;2022-12-13T07:57:28;152.57;;;89.88;;
55053;SDS011;40954;45.668;18.980;2022-12-13T07:59:55;203.73;;;113.75;;
55053;SDS011;40954;45.668;18.980;2022-12-13T08:02:21;187.60;;;106.50;;
55053;SDS011;40954;45.668;18.980;2022-12-13T08:04:47;148.82;;;92.63;;
55053;SDS011;40954;45.668;18.980;2022-12-13T08:07:13;128.60;;;81.72;;
55053;SDS011;40954;45.668;18.980;2022-12-13T08:09:39;117.55;;;77.22;;
55053;SDS011;40954;45.668;18.980;2022-12-13T08:12:05;118.57;;;79.85;;
55053;SDS011;40954;45.668;18.980;2022-12-13T08:14:31;143.02;;;89.00;;
55053;SDS011;40954;45.668;18.980;2022-12-13T08:16:58;165.88;;;105.50;;
55053;SDS011;40954;45.668;18.980;2022-12-13T08:19:24;168.20;;;106.55;;
55053;SDS011;40954;45.668;18.980;2022-12-13T08:21:50;176.70;;;111.40;;
55053;SDS011;40954;45.668;18.980;2022-12-13T08:24:16;182.60;;;109.65;;
55053;SDS011;40954;45.668;18.980;2022-12-13T08:26:43;200.32;;;120.63;;
55053;SDS011;40954;45.668;18.980;2022-12-13T08:29:10;231.23;;;127.68;;
55053;SDS011;40954;45.668;18.980;2022-12-13T08:31:36;233.40;;;127.10;;
55053;SDS011;40954;45.668;18.980;2022-12-13T08:34:02;200.02;;;111.55;;
55053;SDS011;40954;45.668;18.980;2022-12-13T08:36:28;184.48;;;107.78;;
55053;SDS011;40954;45.668;18.980;2022-12-13T08:38:55;183.68;;;109.50;;
55053;SDS011;40954;45.668;18.980;2022-12-13T08:41:21;195.10;;;117.05;;
55053;SDS011;40954;45.668;18.980;2022-12-13T08:43:47;157.02;;;97.35;;
55053;SDS011;40954;45.668;18.980;2022-12-13T08:46:13;101.65;;;66.68;;
55053;SDS011;40954;45.668;18.980;2022-12-13T08:48:39;102.80;;;64.25;;
55053;SDS011;40954;45.668;18.980;2022-12-13T08:51:07;98.18;;;58.25;;
55053;SDS011;40954;45.668;18.980;2022-12-13T08:53:33;97.53;;;60.90;;
55053;SDS011;40954;45.668;18.980;2022-12-13T08:56:00;88.93;;;56.88;;
55053;SDS011;40954;45.668;18.980;2022-12-13T08:58:26;87.30;;;52.42;;
55053;SDS011;40954;45.668;18.980;2022-12-13T09:00:53;81.00;;;48.85;;
55053;SDS011;40954;45.668;18.980;2022-12-13T09:03:19;75.75;;;47.30;;
55053;SDS011;40954;45.668;18.980;2022-12-13T09:05:45;67.00;;;40.42;;
55053;SDS011;40954;45.668;18.980;2022-12-13T09:08:11;52.90;;;34.45;;
55053;SDS011;40954;45.668;18.980;2022-12-13T09:10:37;45.13;;;30.52;;
55053;SDS011;40954;45.668;18.980;2022-12-13T09:13:03;46.67;;;29.00;;
55053;SDS011;40954;45.668;18.980;2022-12-13T09:15:30;39.92;;;25.88;;
55053;SDS011;40954;45.668;18.980;2022-12-13T09:17:56;35.85;;;23.20;;
55053;SDS011;40954;45.668;18.980;2022-12-13T09:20:22;35.15;;;22.67;;
55053;SDS011;40954;45.668;18.980;2022-12-13T09:22:48;32.55;;;22.98;;
55053;SDS011;40954;45.668;18.980;2022-12-13T09:25:15;38.53;;;24.33;;
55053;SDS011;40954;45.668;18.980;2022-12-13T09:27:41;35.28;;;21.42;;
55053;SDS011;40954;45.668;18.980;2022-12-13T09:30:08;35.17;;;21.35;;
55053;SDS011;40954;45.668;18.980;2022-12-13T09:32:37;28.25;;;18.38;;
55053;SDS011;40954;45.668;18.980;2022-12-13T09:35:04;28.90;;;18.63;;
55053;SDS011;40954;45.668;18.980;2022-12-13T09:37:30;24.55;;;16.20;;
55053;SDS011;40954;45.668;18.980;2022-12-13T09:39:56;22.50;;;17.35;;
55053;SDS011;40954;45.668;18.980;2022-12-13T09:42:28;28.95;;;19.00;;
55053;SDS011;40954;45.668;18.980;2022-12-13T09:45:02;30.63;;;19.55;;
55053;SDS011;40954;45.668;18.980;2022-12-13T09:47:33;27.77;;;17.15;;
55053;SDS011;40954;45.668;18.980;2022-12-13T09:50:00;34.55;;;21.42;;
55053;SDS011;40954;45.668;18.980;2022-12-13T09:52:33;37.10;;;24.00;;
55053;SDS011;40954;45.668;18.980;2022-12-13T09:55:01;44.20;;;26.80;;
55053;SDS011;40954;45.668;18.980;2022-12-13T09:57:30;35.42;;;22.35;;
55053;SDS011;40954;45.668;18.980;2022-12-13T09:59:56;35.10;;;22.60;;
55053;SDS011;40954;45.668;18.980;2022-12-13T10:02:24;31.00;;;20.10;;
55053;SDS011;40954;45.668;18.980;2022-12-13T10:04:51;34.50;;;21.08;;
55053;SDS011;40954;45.668;18.980;2022-12-13T10:07:21;28.95;;;20.27;;
55053;SDS011;40954;45.668;18.980;2022-12-13T10:09:47;31.90;;;20.55;;
55053;SDS011;40954;45.668;18.980;2022-12-13T10:12:14;34.28;;;20.90;;
55053;SDS011;40954;45.668;18.980;2022-12-13T10:14:42;30.38;;;20.48;;
55053;SDS011;40954;45.668;18.980;2022-12-13T10:17:09;25.13;;;17.30;;
55053;SDS011;40954;45.668;18.980;2022-12-13T10:19:40;30.40;;;18.23;;
55053;SDS011;40954;45.668;18.980;2022-12-13T10:22:10;20.98;;;14.90;;
55053;SDS011;40954;45.668;18.980;2022-12-13T10:27:16;20.55;;;13.48;;
55053;SDS011;40954;45.668;18.980;2022-12-13T10:30:03;21.90;;;13.77;;
55053;SDS011;40954;45.668;18.980;2022-12-13T10:32:30;25.30;;;15.23;;
55053;SDS011;40954;45.668;18.980;2022-12-13T10:35:09;20.77;;;14.23;;
55053;SDS011;40954;45.668;18.980;2022-12-13T10:37:36;18.98;;;13.52;;
55053;SDS011;40954;45.668;18.980;2022-12-13T10:40:02;19.55;;;13.35;;
55053;SDS011;40954;45.668;18.980;2022-12-13T10:42:28;20.25;;;14.57;;
55053;SDS011;40954;45.668;18.980;2022-12-13T10:45:07;26.50;;;16.13;;
55053;SDS011;40954;45.668;18.980;2022-12-13T10:47:34;20.85;;;14.52;;
55053;SDS011;40954;45.668;18.980;2022-12-13T10:50:00;27.20;;;16.52;;
55053;SDS011;40954;45.668;18.980;2022-12-13T10:52:30;23.75;;;16.20;;
55053;SDS011;40954;45.668;18.980;2022-12-13T10:55:01;21.20;;;14.95;;
55053;SDS011;40954;45.668;18.980;2022-12-13T10:57:28;33.13;;;21.10;;
55053;SDS011;40954;45.668;18.980;2022-12-13T10:59:55;33.40;;;20.58;;
55053;SDS011;40954;45.668;18.980;2022-12-13T11:04:50;34.97;;;18.52;;
55053;SDS011;40954;45.668;18.980;2022-12-13T11:07:23;27.27;;;16.88;;
55053;SDS011;40954;45.668;18.980;2022-12-13T11:09:50;20.30;;;13.98;;
55053;SDS011;40954;45.668;18.980;2022-12-13T11:12:20;18.15;;;13.38;;
55053;SDS011;40954;45.668;18.980;2022-12-13T11:14:49;17.98;;;13.50;;
55053;SDS011;40954;45.668;18.980;2022-12-13T11:17:19;19.08;;;14.10;;
55053;SDS011;40954;45.668;18.980;2022-12-13T11:19:56;15.68;;;11.57;;
55053;SDS011;40954;45.668;18.980;2022-12-13T11:22:27;14.50;;;12.13;;
55053;SDS011;40954;45.668;18.980;2022-12-13T11:24:59;18.35;;;14.93;;
55053;SDS011;40954;45.668;18.980;2022-12-13T11:35:30;18.65;;;15.15;;
55053;SDS011;40954;45.668;18.980;2022-12-13T11:38:01;20.20;;;17.30;;
55053;SDS011;40954;45.668;18.980;2022-12-13T11:40:28;18.45;;;16.40;;
55053;SDS011;40954;45.668;18.980;2022-12-13T11:43:08;15.30;;;12.98;;
55053;SDS011;40954;45.668;18.980;2022-12-13T11:45:38;16.63;;;13.90;;
55053;SDS011;40954;45.668;18.980;2022-12-13T11:50:38;14.75;;;13.10;;
55053;SDS011;40954;45.668;18.980;2022-12-13T11:56:14;13.30;;;11.88;;
55053;SDS011;40954;45.668;18.980;2022-12-13T11:58:51;15.43;;;13.85;;
55053;SDS011;40954;45.668;18.980;2022-12-13T12:02:01;13.35;;;10.38;;
55053;SDS011;40954;45.668;18.980;2022-12-13T12:06:56;19.02;;;16.48;;
55053;SDS011;40954;45.668;18.980;2022-12-13T12:09:24;25.48;;;19.95;;
55053;SDS011;40954;45.668;18.980;2022-12-13T12:16:56;15.70;;;14.07;;
55053;SDS011;40954;45.668;18.980;2022-12-13T12:19:29;14.82;;;12.80;;
55053;SDS011;40954;45.668;18.980;2022-12-13T12:22:39;16.40;;;13.35;;
55053;SDS011;40954;45.668;18.980;2022-12-13T12:37:48;17.60;;;13.85;;
55053;SDS011;40954;45.668;18.980;2022-12-13T12:40:26;12.85;;;11.40;;
55053;SDS011;40954;45.668;18.980;2022-12-13T12:45:34;12.70;;;11.40;;
55053;SDS011;40954;45.668;18.980;2022-12-13T12:53:25;14.70;;;12.35;;
55053;SDS011;40954;45.668;18.980;2022-12-13T13:04:01;22.40;;;16.48;;
55053;SDS011;40954;45.668;18.980;2022-12-13T13:06:29;23.25;;;17.85;;
55053;SDS011;40954;45.668;18.980;2022-12-13T13:09:01;26.95;;;19.98;;
55053;SDS011;40954;45.668;18.980;2022-12-13T13:18:53;44.38;;;28.90;;
55053;SDS011;40954;45.668;18.980;2022-12-13T13:26:47;33.70;;;21.77;;
55053;SDS011;40954;45.668;18.980;2022-12-13T13:34:26;40.92;;;23.98;;
55053;SDS011;40954;45.668;18.980;2022-12-13T13:36:52;40.75;;;24.08;;
55053;SDS011;40954;45.668;18.980;2022-12-13T13:42:07;76.25;;;41.75;;
55053;SDS011;40954;45.668;18.980;2022-12-13T13:50:01;80.85;;;44.78;;
55053;SDS011;40954;45.668;18.980;2022-12-13T14:28:48;96.22;;;49.33;;
55053;SDS011;40954;45.668;18.980;2022-12-13T14:31:57;93.43;;;53.42;;
55053;SDS011;40954;45.668;18.980;2022-12-13T14:34:04;73.45;;;44.95;;
55053;SDS011;40954;45.668;18.980;2022-12-13T14:36:34;47.28;;;30.42;;
55053;SDS011;40954;45.668;18.980;2022-12-13T14:39:12;41.15;;;26.13;;
55053;SDS011;40954;45.668;18.980;2022-12-13T14:41:49;35.75;;;22.40;;
55053;SDS011;40954;45.668;18.980;2022-12-13T14:44:17;33.10;;;22.13;;
55053;SDS011;40954;45.668;18.980;2022-12-13T14:46:55;33.28;;;22.35;;
55053;SDS011;40954;45.668;18.980;2022-12-13T14:49:22;45.17;;;27.40;;
55053;SDS011;40954;45.668;18.980;2022-12-13T14:51:52;40.85;;;26.65;;
55053;SDS011;40954;45.668;18.980;2022-12-13T14:54:24;48.22;;;29.30;;
55053;SDS011;40954;45.668;18.980;2022-12-13T14:56:52;47.15;;;29.50;;
55053;SDS011;40954;45.668;18.980;2022-12-13T14:59:19;48.97;;;28.67;;
55053;SDS011;40954;45.668;18.980;2022-12-13T15:01:49;48.47;;;27.75;;
55053;SDS011;40954;45.668;18.980;2022-12-13T15:04:22;49.83;;;29.90;;
55053;SDS011;40954;45.668;18.980;2022-12-13T15:06:57;44.20;;;27.73;;
55053;SDS011;40954;45.668;18.980;2022-12-13T15:09:24;36.28;;;24.58;;
55053;SDS011;40954;45.668;18.980;2022-12-13T15:11:51;39.35;;;24.85;;
55053;SDS011;40954;45.668;18.980;2022-12-13T15:14:18;39.42;;;24.45;;
55053;SDS011;40954;45.668;18.980;2022-12-13T15:16:46;46.58;;;28.35;;
55053;SDS011;40954;45.668;18.980;2022-12-13T15:19:14;50.25;;;28.95;;
55053;SDS011;40954;45.668;18.980;2022-12-13T15:21:40;48.22;;;30.08;;
55053;SDS011;40954;45.668;18.980;2022-12-13T15:24:07;55.40;;;34.15;;
55053;SDS011;40954;45.668;18.980;2022-12-13T15:26:36;62.00;;;35.35;;
55053;SDS011;40954;45.668;18.980;2022-12-13T15:29:03;52.05;;;30.73;;
55053;SDS011;40954;45.668;18.980;2022-12-13T15:31:30;51.17;;;30.08;;
55053;SDS011;40954;45.668;18.980;2022-12-13T15:36:42;57.80;;;32.80;;
55053;SDS011;40954;45.668;18.980;2022-12-13T15:39:09;49.55;;;29.85;;
55053;SDS011;40954;45.668;18.980;2022-12-13T15:41:40;45.78;;;28.23;;
55053;SDS011;40954;45.668;18.980;2022-12-13T15:46:43;44.05;;;26.45;;
55053;SDS011;40954;45.668;18.980;2022-12-13T15:54:21;47.17;;;29.23;;
55053;SDS011;40954;45.668;18.980;2022-12-13T15:59:33;47.83;;;30.08;;
55053;SDS011;40954;45.668;18.980;2022-12-13T16:02:00;48.47;;;31.63;;
55053;SDS011;40954;45.668;18.980;2022-12-13T16:04:27;46.83;;;30.73;;
55053;SDS011;40954;45.668;18.980;2022-12-13T16:06:54;50.95;;;31.25;;
55053;SDS011;40954;45.668;18.980;2022-12-13T16:09:21;48.97;;;29.08;;
55053;SDS011;40954;45.668;18.980;2022-12-13T16:17:04;44.10;;;27.17;;
55053;SDS011;40954;45.668;18.980;2022-12-13T16:19:30;44.47;;;27.30;;
55053;SDS011;40954;45.668;18.980;2022-12-13T16:21:56;55.75;;;34.35;;
55053;SDS011;40954;45.668;18.980;2022-12-13T16:24:23;57.35;;;36.08;;
55053;SDS011;40954;45.668;18.980;2022-12-13T16:26:49;48.22;;;28.08;;
55053;SDS011;40954;45.668;18.980;2022-12-13T16:29:16;42.10;;;27.75;;
55053;SDS011;40954;45.668;18.980;2022-12-13T16:31:46;42.85;;;27.55;;
55053;SDS011;40954;45.668;18.980;2022-12-13T16:34:12;55.65;;;29.80;;
55053;SDS011;40954;45.668;18.980;2022-12-13T16:36:41;40.42;;;26.90;;
55053;SDS011;40954;45.668;18.980;2022-12-13T16:39:09;41.58;;;24.58;;
55053;SDS011;40954;45.668;18.980;2022-12-13T16:41:42;34.60;;;23.17;;
55053;SDS011;40954;45.668;18.980;2022-12-13T16:44:12;44.67;;;25.85;;
55053;SDS011;40954;45.668;18.980;2022-12-13T16:46:40;42.33;;;25.58;;
55053;SDS011;40954;45.668;18.980;2022-12-13T16:49:17;37.53;;;24.10;;
55053;SDS011;40954;45.668;18.980;2022-12-13T16:51:44;37.47;;;25.23;;
55053;SDS011;40954;45.668;18.980;2022-12-13T16:54:10;39.92;;;25.27;;
55053;SDS011;40954;45.668;18.980;2022-12-13T16:56:36;41.00;;;25.75;;
55053;SDS011;40954;45.668;18.980;2022-12-13T16:59:02;43.90;;;25.85;;
55053;SDS011;40954;45.668;18.980;2022-12-13T17:01:28;43.47;;;26.65;;